sensor_id;sensor_type;location;lat;lon;timestamp;P1;durP1;ratioP1;P2;durP2;ratioP2
62523;SDS011;53689;56.878;60.672;2023-08-01T00:00:19;9.05;;;6.15;;
62523;SDS011;53689;56.878;60.672;2023-08-01T00:02:48;7.43;;;5.65;;
62523;SDS011;53689;56.878;60.672;2023-08-01T00:05:15;7.20;;;5.60;;
62523;SDS011;53689;56.878;60.672;2023-08-01T00:07:43;8.80;;;5.60;;
62523;SDS011;53689;56.878;60.672;2023-08-01T00:10:12;7.45;;;5.10;;
62523;SDS011;53689;56.878;60.672;2023-08-01T00:12:39;8.98;;;5.82;;
62523;SDS011;53689;56.878;60.672;2023-08-01T00:15:07;7.80;;;6.85;;
62523;SDS011;53689;56.878;60.672;2023-08-01T00:17:36;9.88;;;7.65;;
62523;SDS011;53689;56.878;60.672;2023-08-01T00:20:04;8.93;;;6.47;;
62523;SDS011;53689;56.878;60.672;2023-08-01T00:22:32;8.57;;;5.97;;
62523;SDS011;53689;56.878;60.672;2023-08-01T00:25:00;7.38;;;5.45;;
62523;SDS011;53689;56.878;60.672;2023-08-01T00:27:29;8.50;;;5.40;;
62523;SDS011;53689;56.878;60.672;2023-08-01T00:30:06;7.78;;;5.93;;
62523;SDS011;53689;56.878;60.672;2023-08-01T00:32:35;8.20;;;5.80;;
62523;SDS011;53689;56.878;60.672;2023-08-01T00:35:03;8.25;;;5.65;;
62523;SDS011;53689;56.878;60.672;2023-08-01T00:37:31;8.48;;;5.53;;
62523;SDS011;53689;56.878;60.672;2023-08-01T00:39:58;9.05;;;6.10;;
62523;SDS011;53689;56.878;60.672;2023-08-01T00:42:26;6.88;;;5.40;;
62523;SDS011;53689;56.878;60.672;2023-08-01T00:44:55;7.30;;;5.65;;
62523;SDS011;53689;56.878;60.672;2023-08-01T00:47:23;9.25;;;5.55;;
62523;SDS011;53689;56.878;60.672;2023-08-01T00:49:51;8.63;;;5.68;;
62523;SDS011;53689;56.878;60.672;2023-08-01T00:52:19;7.38;;;5.50;;
62523;SDS011;53689;56.878;60.672;2023-08-01T00:54:47;7.68;;;5.32;;
62523;SDS011;53689;56.878;60.672;2023-08-01T00:57:15;10.43;;;6.22;;
62523;SDS011;53689;56.878;60.672;2023-08-01T00:59:42;8.93;;;5.53;;
62523;SDS011;53689;56.878;60.672;2023-08-01T01:02:11;8.68;;;6.57;;
62523;SDS011;53689;56.878;60.672;2023-08-01T01:04:39;14.50;;;8.50;;
62523;SDS011;53689;56.878;60.672;2023-08-01T01:07:07;13.65;;;8.15;;
62523;SDS011;53689;56.878;60.672;2023-08-01T01:09:35;9.85;;;6.53;;
62523;SDS011;53689;56.878;60.672;2023-08-01T01:12:03;7.20;;;5.53;;
62523;SDS011;53689;56.878;60.672;2023-08-01T01:14:32;8.05;;;5.70;;
62523;SDS011;53689;56.878;60.672;2023-08-01T01:16:59;8.82;;;5.97;;
62523;SDS011;53689;56.878;60.672;2023-08-01T01:19:29;9.75;;;5.50;;
62523;SDS011;53689;56.878;60.672;2023-08-01T01:22:07;9.20;;;5.97;;
62523;SDS011;53689;56.878;60.672;2023-08-01T01:24:49;9.27;;;5.95;;
62523;SDS011;53689;56.878;60.672;2023-08-01T01:27:17;7.45;;;5.47;;
62523;SDS011;53689;56.878;60.672;2023-08-01T01:29:45;8.52;;;5.22;;
62523;SDS011;53689;56.878;60.672;2023-08-01T01:32:15;7.72;;;4.93;;
62523;SDS011;53689;56.878;60.672;2023-08-01T01:34:44;10.18;;;5.13;;
62523;SDS011;53689;56.878;60.672;2023-08-01T01:37:13;12.82;;;8.20;;
62523;SDS011;53689;56.878;60.672;2023-08-01T01:39:40;9.90;;;6.90;;
62523;SDS011;53689;56.878;60.672;2023-08-01T01:42:08;9.10;;;5.95;;
62523;SDS011;53689;56.878;60.672;2023-08-01T01:44:36;7.30;;;5.28;;
62523;SDS011;53689;56.878;60.672;2023-08-01T01:47:04;12.77;;;5.95;;
62523;SDS011;53689;56.878;60.672;2023-08-01T01:49:33;18.20;;;7.22;;
62523;SDS011;53689;56.878;60.672;2023-08-01T01:52:00;52.05;;;10.68;;
62523;SDS011;53689;56.878;60.672;2023-08-01T01:54:29;66.30;;;11.13;;
62523;SDS011;53689;56.878;60.672;2023-08-01T01:56:57;31.95;;;8.52;;
62523;SDS011;53689;56.878;60.672;2023-08-01T01:59:24;24.88;;;7.03;;
62523;SDS011;53689;56.878;60.672;2023-08-01T02:01:52;28.23;;;7.43;;
62523;SDS011;53689;56.878;60.672;2023-08-01T02:04:20;12.88;;;5.13;;
62523;SDS011;53689;56.878;60.672;2023-08-01T02:06:47;14.82;;;5.82;;
62523;SDS011;53689;56.878;60.672;2023-08-01T02:09:15;9.93;;;5.60;;
62523;SDS011;53689;56.878;60.672;2023-08-01T02:11:45;10.18;;;6.72;;
62523;SDS011;53689;56.878;60.672;2023-08-01T02:14:13;10.10;;;6.07;;
62523;SDS011;53689;56.878;60.672;2023-08-01T02:16:40;14.55;;;6.10;;
62523;SDS011;53689;56.878;60.672;2023-08-01T02:19:09;13.00;;;6.57;;
62523;SDS011;53689;56.878;60.672;2023-08-01T02:21:37;9.55;;;5.72;;
62523;SDS011;53689;56.878;60.672;2023-08-01T02:24:04;10.77;;;4.78;;
62523;SDS011;53689;56.878;60.672;2023-08-01T02:26:32;9.10;;;5.50;;
62523;SDS011;53689;56.878;60.672;2023-08-01T02:29:01;10.68;;;4.95;;
62523;SDS011;53689;56.878;60.672;2023-08-01T02:33:56;10.00;;;5.03;;
62523;SDS011;53689;56.878;60.672;2023-08-01T02:36:24;6.95;;;4.30;;
62523;SDS011;53689;56.878;60.672;2023-08-01T02:38:51;6.65;;;4.53;;
62523;SDS011;53689;56.878;60.672;2023-08-01T02:41:19;7.35;;;4.80;;
62523;SDS011;53689;56.878;60.672;2023-08-01T02:43:47;7.50;;;4.63;;
62523;SDS011;53689;56.878;60.672;2023-08-01T02:46:16;8.15;;;4.20;;
62523;SDS011;53689;56.878;60.672;2023-08-01T02:48:44;9.88;;;5.75;;
62523;SDS011;53689;56.878;60.672;2023-08-01T02:51:13;9.53;;;6.60;;
62523;SDS011;53689;56.878;60.672;2023-08-01T02:53:41;10.85;;;7.07;;
62523;SDS011;53689;56.878;60.672;2023-08-01T02:56:08;11.45;;;8.60;;
62523;SDS011;53689;56.878;60.672;2023-08-01T02:58:36;11.50;;;9.25;;
62523;SDS011;53689;56.878;60.672;2023-08-01T03:01:06;10.48;;;7.82;;
62523;SDS011;53689;56.878;60.672;2023-08-01T03:03:35;10.05;;;6.88;;
62523;SDS011;53689;56.878;60.672;2023-08-01T03:06:03;9.48;;;6.03;;
62523;SDS011;53689;56.878;60.672;2023-08-01T03:08:31;8.73;;;5.63;;
62523;SDS011;53689;56.878;60.672;2023-08-01T03:10:58;8.63;;;5.00;;
62523;SDS011;53689;56.878;60.672;2023-08-01T03:13:26;7.38;;;5.15;;
62523;SDS011;53689;56.878;60.672;2023-08-01T03:15:54;7.78;;;5.20;;
62523;SDS011;53689;56.878;60.672;2023-08-01T03:18:22;7.88;;;4.95;;
62523;SDS011;53689;56.878;60.672;2023-08-01T03:20:51;7.68;;;5.43;;
62523;SDS011;53689;56.878;60.672;2023-08-01T03:23:18;10.25;;;5.30;;
62523;SDS011;53689;56.878;60.672;2023-08-01T03:25:46;7.72;;;5.75;;
62523;SDS011;53689;56.878;60.672;2023-08-01T03:28:15;7.73;;;5.27;;
62523;SDS011;53689;56.878;60.672;2023-08-01T03:30:43;7.60;;;5.20;;
62523;SDS011;53689;56.878;60.672;2023-08-01T03:33:11;6.57;;;4.53;;
62523;SDS011;53689;56.878;60.672;2023-08-01T03:35:39;6.40;;;4.63;;
62523;SDS011;53689;56.878;60.672;2023-08-01T03:38:08;6.13;;;4.20;;
62523;SDS011;53689;56.878;60.672;2023-08-01T03:40:36;8.65;;;4.35;;
62523;SDS011;53689;56.878;60.672;2023-08-01T03:43:04;7.93;;;4.55;;
62523;SDS011;53689;56.878;60.672;2023-08-01T03:45:32;7.57;;;4.13;;
62523;SDS011;53689;56.878;60.672;2023-08-01T03:48:00;5.82;;;4.30;;
62523;SDS011;53689;56.878;60.672;2023-08-01T03:50:28;7.82;;;5.00;;
62523;SDS011;53689;56.878;60.672;2023-08-01T03:52:55;10.40;;;6.90;;
62523;SDS011;53689;56.878;60.672;2023-08-01T03:55:24;8.63;;;5.57;;
62523;SDS011;53689;56.878;60.672;2023-08-01T03:57:52;9.65;;;6.55;;
62523;SDS011;53689;56.878;60.672;2023-08-01T04:00:20;11.20;;;6.40;;
62523;SDS011;53689;56.878;60.672;2023-08-01T04:02:47;8.48;;;5.63;;
62523;SDS011;53689;56.878;60.672;2023-08-01T04:05:17;8.05;;;5.43;;
62523;SDS011;53689;56.878;60.672;2023-08-01T04:07:45;8.98;;;5.35;;
62523;SDS011;53689;56.878;60.672;2023-08-01T04:10:13;8.13;;;5.18;;
62523;SDS011;53689;56.878;60.672;2023-08-01T04:12:42;10.50;;;6.00;;
62523;SDS011;53689;56.878;60.672;2023-08-01T04:17:37;18.83;;;10.88;;
62523;SDS011;53689;56.878;60.672;2023-08-01T04:20:06;24.77;;;12.18;;
62523;SDS011;53689;56.878;60.672;2023-08-01T04:22:34;29.63;;;10.82;;
62523;SDS011;53689;56.878;60.672;2023-08-01T04:25:02;16.25;;;8.77;;
62523;SDS011;53689;56.878;60.672;2023-08-01T04:27:30;50.92;;;10.15;;
62523;SDS011;53689;56.878;60.672;2023-08-01T04:29:59;84.22;;;12.15;;
62523;SDS011;53689;56.878;60.672;2023-08-01T04:32:27;87.18;;;12.07;;
62523;SDS011;53689;56.878;60.672;2023-08-01T04:34:54;53.88;;;9.82;;
62523;SDS011;53689;56.878;60.672;2023-08-01T04:37:22;26.77;;;6.65;;
62523;SDS011;53689;56.878;60.672;2023-08-01T04:39:50;16.83;;;6.47;;
62523;SDS011;53689;56.878;60.672;2023-08-01T04:42:17;30.50;;;7.38;;
62523;SDS011;53689;56.878;60.672;2023-08-01T04:44:45;23.65;;;8.57;;
62523;SDS011;53689;56.878;60.672;2023-08-01T04:47:14;17.52;;;6.68;;
62523;SDS011;53689;56.878;60.672;2023-08-01T04:49:42;11.32;;;6.40;;
62523;SDS011;53689;56.878;60.672;2023-08-01T04:52:10;13.52;;;7.53;;
62523;SDS011;53689;56.878;60.672;2023-08-01T04:54:38;17.65;;;8.90;;
62523;SDS011;53689;56.878;60.672;2023-08-01T04:57:05;22.65;;;13.77;;
62523;SDS011;53689;56.878;60.672;2023-08-01T04:59:34;21.23;;;12.57;;
62523;SDS011;53689;56.878;60.672;2023-08-01T05:02:02;11.75;;;7.38;;
62523;SDS011;53689;56.878;60.672;2023-08-01T05:04:32;14.15;;;6.03;;
62523;SDS011;53689;56.878;60.672;2023-08-01T05:06:59;16.52;;;7.85;;
62523;SDS011;53689;56.878;60.672;2023-08-01T05:09:27;17.75;;;8.57;;
62523;SDS011;53689;56.878;60.672;2023-08-01T05:11:54;14.30;;;7.80;;
62523;SDS011;53689;56.878;60.672;2023-08-01T05:14:22;11.77;;;6.80;;
62523;SDS011;53689;56.878;60.672;2023-08-01T05:16:50;12.55;;;7.07;;
62523;SDS011;53689;56.878;60.672;2023-08-01T05:19:18;11.18;;;7.15;;
62523;SDS011;53689;56.878;60.672;2023-08-01T05:21:47;11.55;;;6.65;;
62523;SDS011;53689;56.878;60.672;2023-08-01T05:24:14;13.77;;;6.40;;
62523;SDS011;53689;56.878;60.672;2023-08-01T05:26:42;10.68;;;5.60;;
62523;SDS011;53689;56.878;60.672;2023-08-01T05:29:09;19.40;;;8.07;;
62523;SDS011;53689;56.878;60.672;2023-08-01T05:31:37;13.77;;;6.22;;
62523;SDS011;53689;56.878;60.672;2023-08-01T05:34:07;11.10;;;6.35;;
62523;SDS011;53689;56.878;60.672;2023-08-01T05:36:35;15.02;;;9.40;;
62523;SDS011;53689;56.878;60.672;2023-08-01T05:39:04;15.38;;;9.65;;
62523;SDS011;53689;56.878;60.672;2023-08-01T05:41:32;9.55;;;7.13;;
62523;SDS011;53689;56.878;60.672;2023-08-01T05:44:00;10.15;;;6.53;;
62523;SDS011;53689;56.878;60.672;2023-08-01T05:46:28;13.70;;;7.80;;
62523;SDS011;53689;56.878;60.672;2023-08-01T05:48:55;16.08;;;6.65;;
62523;SDS011;53689;56.878;60.672;2023-08-01T05:51:23;33.55;;;11.35;;
62523;SDS011;53689;56.878;60.672;2023-08-01T05:53:50;33.28;;;9.98;;
62523;SDS011;53689;56.878;60.672;2023-08-01T05:56:20;14.40;;;7.90;;
62523;SDS011;53689;56.878;60.672;2023-08-01T05:58:47;23.50;;;8.73;;
62523;SDS011;53689;56.878;60.672;2023-08-01T06:01:15;15.80;;;6.20;;
62523;SDS011;53689;56.878;60.672;2023-08-01T06:03:43;17.30;;;6.50;;
62523;SDS011;53689;56.878;60.672;2023-08-01T06:06:10;13.45;;;6.68;;
62523;SDS011;53689;56.878;60.672;2023-08-01T06:08:38;17.23;;;6.85;;
62523;SDS011;53689;56.878;60.672;2023-08-01T06:11:06;9.13;;;5.30;;
62523;SDS011;53689;56.878;60.672;2023-08-01T06:13:36;14.13;;;6.47;;
62523;SDS011;53689;56.878;60.672;2023-08-01T06:16:04;12.02;;;7.45;;
62523;SDS011;53689;56.878;60.672;2023-08-01T06:18:31;9.40;;;5.75;;
62523;SDS011;53689;56.878;60.672;2023-08-01T06:20:59;16.27;;;6.85;;
62523;SDS011;53689;56.878;60.672;2023-08-01T06:23:27;11.13;;;6.57;;
62523;SDS011;53689;56.878;60.672;2023-08-01T06:25:55;16.52;;;8.40;;
62523;SDS011;53689;56.878;60.672;2023-08-01T06:28:22;29.25;;;12.80;;
62523;SDS011;53689;56.878;60.672;2023-08-01T06:30:53;17.40;;;8.73;;
62523;SDS011;53689;56.878;60.672;2023-08-01T06:33:22;51.05;;;18.27;;
62523;SDS011;53689;56.878;60.672;2023-08-01T06:35:49;46.05;;;15.15;;
62523;SDS011;53689;56.878;60.672;2023-08-01T06:38:17;45.50;;;15.60;;
62523;SDS011;53689;56.878;60.672;2023-08-01T06:40:45;34.65;;;10.25;;
62523;SDS011;53689;56.878;60.672;2023-08-01T06:43:12;44.38;;;13.68;;
62523;SDS011;53689;56.878;60.672;2023-08-01T06:45:40;22.80;;;9.23;;
62523;SDS011;53689;56.878;60.672;2023-08-01T06:48:09;18.85;;;7.60;;
62523;SDS011;53689;56.878;60.672;2023-08-01T06:50:38;12.70;;;6.68;;
62523;SDS011;53689;56.878;60.672;2023-08-01T06:53:06;10.88;;;6.10;;
62523;SDS011;53689;56.878;60.672;2023-08-01T06:55:34;13.98;;;8.27;;
62523;SDS011;53689;56.878;60.672;2023-08-01T06:58:01;14.07;;;7.07;;
62523;SDS011;53689;56.878;60.672;2023-08-01T07:00:29;7.95;;;5.18;;
62523;SDS011;53689;56.878;60.672;2023-08-01T07:02:57;12.73;;;8.13;;
62523;SDS011;53689;56.878;60.672;2023-08-01T07:05:27;7.97;;;5.55;;
62523;SDS011;53689;56.878;60.672;2023-08-01T07:07:54;9.13;;;5.57;;
62523;SDS011;53689;56.878;60.672;2023-08-01T07:10:22;8.70;;;6.40;;
62523;SDS011;53689;56.878;60.672;2023-08-01T07:12:50;9.43;;;5.88;;
62523;SDS011;53689;56.878;60.672;2023-08-01T07:15:17;14.00;;;7.68;;
62523;SDS011;53689;56.878;60.672;2023-08-01T07:17:45;9.23;;;5.65;;
62523;SDS011;53689;56.878;60.672;2023-08-01T07:20:13;16.27;;;7.70;;
62523;SDS011;53689;56.878;60.672;2023-08-01T07:22:42;27.33;;;7.60;;
62523;SDS011;53689;56.878;60.672;2023-08-01T07:25:10;24.55;;;6.22;;
62523;SDS011;53689;56.878;60.672;2023-08-01T07:27:38;56.47;;;10.10;;
62523;SDS011;53689;56.878;60.672;2023-08-01T07:30:06;32.75;;;9.95;;
62523;SDS011;53689;56.878;60.672;2023-08-01T07:32:35;21.58;;;7.95;;
62523;SDS011;53689;56.878;60.672;2023-08-01T07:35:03;15.65;;;9.02;;
62523;SDS011;53689;56.878;60.672;2023-08-01T07:37:32;15.00;;;9.02;;
62523;SDS011;53689;56.878;60.672;2023-08-01T07:40:02;12.43;;;7.32;;
62523;SDS011;53689;56.878;60.672;2023-08-01T07:42:30;10.90;;;6.70;;
62523;SDS011;53689;56.878;60.672;2023-08-01T07:44:59;9.43;;;6.32;;
62523;SDS011;53689;56.878;60.672;2023-08-01T07:47:27;10.35;;;5.80;;
62523;SDS011;53689;56.878;60.672;2023-08-01T07:49:54;13.82;;;6.82;;
62523;SDS011;53689;56.878;60.672;2023-08-01T07:52:22;12.20;;;6.00;;
62523;SDS011;53689;56.878;60.672;2023-08-01T07:54:50;15.82;;;7.65;;
62523;SDS011;53689;56.878;60.672;2023-08-01T07:57:20;11.65;;;7.22;;
62523;SDS011;53689;56.878;60.672;2023-08-01T07:59:47;11.60;;;7.80;;
62523;SDS011;53689;56.878;60.672;2023-08-01T08:02:15;15.40;;;9.65;;
62523;SDS011;53689;56.878;60.672;2023-08-01T08:04:43;17.50;;;10.05;;
62523;SDS011;53689;56.878;60.672;2023-08-01T08:07:10;37.85;;;33.63;;
62523;SDS011;53689;56.878;60.672;2023-08-01T08:09:38;17.48;;;11.75;;
62523;SDS011;53689;56.878;60.672;2023-08-01T08:12:06;14.90;;;10.10;;
62523;SDS011;53689;56.878;60.672;2023-08-01T08:14:35;15.20;;;8.77;;
62523;SDS011;53689;56.878;60.672;2023-08-01T08:17:03;11.80;;;8.10;;
62523;SDS011;53689;56.878;60.672;2023-08-01T08:19:31;8.48;;;6.32;;
62523;SDS011;53689;56.878;60.672;2023-08-01T08:21:59;13.02;;;7.95;;
62523;SDS011;53689;56.878;60.672;2023-08-01T08:24:26;11.88;;;7.95;;
62523;SDS011;53689;56.878;60.672;2023-08-01T08:26:54;15.25;;;8.23;;
62523;SDS011;53689;56.878;60.672;2023-08-01T08:29:22;9.80;;;6.68;;
62523;SDS011;53689;56.878;60.672;2023-08-01T08:31:51;12.15;;;6.70;;
62523;SDS011;53689;56.878;60.672;2023-08-01T08:34:19;12.63;;;8.20;;
62523;SDS011;53689;56.878;60.672;2023-08-01T08:36:47;11.40;;;7.30;;
62523;SDS011;53689;56.878;60.672;2023-08-01T08:39:14;11.60;;;7.47;;
62523;SDS011;53689;56.878;60.672;2023-08-01T08:41:45;12.32;;;9.77;;
62523;SDS011;53689;56.878;60.672;2023-08-01T08:44:14;13.80;;;9.88;;
62523;SDS011;53689;56.878;60.672;2023-08-01T08:46:43;13.18;;;9.43;;
62523;SDS011;53689;56.878;60.672;2023-08-01T08:49:17;22.83;;;14.30;;
62523;SDS011;53689;56.878;60.672;2023-08-01T08:51:46;22.70;;;14.88;;
62523;SDS011;53689;56.878;60.672;2023-08-01T08:54:15;30.50;;;15.45;;
62523;SDS011;53689;56.878;60.672;2023-08-01T08:56:43;25.23;;;14.05;;
62523;SDS011;53689;56.878;60.672;2023-08-01T08:59:11;27.52;;;13.68;;
62523;SDS011;53689;56.878;60.672;2023-08-01T09:01:39;25.73;;;12.75;;
62523;SDS011;53689;56.878;60.672;2023-08-01T09:04:08;18.67;;;10.25;;
62523;SDS011;53689;56.878;60.672;2023-08-01T09:06:42;12.85;;;8.23;;
62523;SDS011;53689;56.878;60.672;2023-08-01T09:09:16;11.07;;;7.80;;
62523;SDS011;53689;56.878;60.672;2023-08-01T09:11:45;13.52;;;8.55;;
62523;SDS011;53689;56.878;60.672;2023-08-01T09:14:13;14.38;;;10.30;;
62523;SDS011;53689;56.878;60.672;2023-08-01T09:16:42;34.50;;;12.57;;
62523;SDS011;53689;56.878;60.672;2023-08-01T09:19:10;35.55;;;11.60;;
62523;SDS011;53689;56.878;60.672;2023-08-01T09:21:44;33.10;;;11.63;;
62523;SDS011;53689;56.878;60.672;2023-08-01T09:26:40;45.60;;;15.40;;
62523;SDS011;53689;56.878;60.672;2023-08-01T09:29:09;32.92;;;11.15;;
62523;SDS011;53689;56.878;60.672;2023-08-01T09:31:37;52.03;;;14.52;;
62523;SDS011;53689;56.878;60.672;2023-08-01T09:34:17;48.60;;;15.40;;
62523;SDS011;53689;56.878;60.672;2023-08-01T09:36:48;38.55;;;12.43;;
62523;SDS011;53689;56.878;60.672;2023-08-01T09:39:16;23.38;;;9.65;;
62523;SDS011;53689;56.878;60.672;2023-08-01T09:41:45;25.70;;;9.43;;
62523;SDS011;53689;56.878;60.672;2023-08-01T09:44:15;15.90;;;8.98;;
62523;SDS011;53689;56.878;60.672;2023-08-01T09:49:11;14.63;;;8.38;;
62523;SDS011;53689;56.878;60.672;2023-08-01T09:51:49;19.77;;;9.60;;
62523;SDS011;53689;56.878;60.672;2023-08-01T09:54:17;11.68;;;8.43;;
62523;SDS011;53689;56.878;60.672;2023-08-01T09:56:45;12.77;;;8.43;;
62523;SDS011;53689;56.878;60.672;2023-08-01T09:59:15;16.10;;;9.25;;
62523;SDS011;53689;56.878;60.672;2023-08-01T10:01:46;12.77;;;8.60;;
62523;SDS011;53689;56.878;60.672;2023-08-01T10:04:15;14.82;;;9.10;;
62523;SDS011;53689;56.878;60.672;2023-08-01T10:06:46;12.57;;;8.85;;
62523;SDS011;53689;56.878;60.672;2023-08-01T10:09:20;13.23;;;8.77;;
62523;SDS011;53689;56.878;60.672;2023-08-01T10:11:48;13.15;;;8.20;;
62523;SDS011;53689;56.878;60.672;2023-08-01T10:14:17;14.30;;;9.07;;
62523;SDS011;53689;56.878;60.672;2023-08-01T10:16:46;13.38;;;9.23;;
62523;SDS011;53689;56.878;60.672;2023-08-01T10:19:15;14.07;;;9.18;;
62523;SDS011;53689;56.878;60.672;2023-08-01T10:21:44;11.50;;;8.45;;
62523;SDS011;53689;56.878;60.672;2023-08-01T10:24:15;15.30;;;9.13;;
62523;SDS011;53689;56.878;60.672;2023-08-01T10:26:45;14.30;;;8.93;;
62523;SDS011;53689;56.878;60.672;2023-08-01T10:29:13;14.43;;;9.25;;
62523;SDS011;53689;56.878;60.672;2023-08-01T10:31:50;12.85;;;8.65;;
62523;SDS011;53689;56.878;60.672;2023-08-01T10:34:18;13.90;;;8.70;;
62523;SDS011;53689;56.878;60.672;2023-08-01T10:36:53;14.93;;;8.60;;
62523;SDS011;53689;56.878;60.672;2023-08-01T10:39:22;11.85;;;8.43;;
62523;SDS011;53689;56.878;60.672;2023-08-01T10:41:57;11.98;;;9.48;;
62523;SDS011;53689;56.878;60.672;2023-08-01T10:44:26;14.85;;;9.30;;
62523;SDS011;53689;56.878;60.672;2023-08-01T10:46:55;11.85;;;7.93;;
62523;SDS011;53689;56.878;60.672;2023-08-01T10:49:34;12.32;;;7.85;;
62523;SDS011;53689;56.878;60.672;2023-08-01T10:52:03;12.57;;;8.60;;
62523;SDS011;53689;56.878;60.672;2023-08-01T10:54:44;12.52;;;7.85;;
62523;SDS011;53689;56.878;60.672;2023-08-01T10:57:15;10.77;;;7.30;;
62523;SDS011;53689;56.878;60.672;2023-08-01T10:59:43;10.32;;;8.00;;
62523;SDS011;53689;56.878;60.672;2023-08-01T11:02:11;10.70;;;7.57;;
62523;SDS011;53689;56.878;60.672;2023-08-01T11:04:54;11.95;;;7.82;;
62523;SDS011;53689;56.878;60.672;2023-08-01T11:07:22;10.57;;;8.10;;
62523;SDS011;53689;56.878;60.672;2023-08-01T11:10:02;11.25;;;8.23;;
62523;SDS011;53689;56.878;60.672;2023-08-01T11:12:33;13.05;;;9.02;;
62523;SDS011;53689;56.878;60.672;2023-08-01T11:15:02;11.10;;;8.15;;
62523;SDS011;53689;56.878;60.672;2023-08-01T11:17:31;11.50;;;8.10;;
62523;SDS011;53689;56.878;60.672;2023-08-01T11:20:03;11.73;;;7.90;;
62523;SDS011;53689;56.878;60.672;2023-08-01T11:22:32;9.70;;;7.57;;
62523;SDS011;53689;56.878;60.672;2023-08-01T11:24:59;9.77;;;7.40;;
62523;SDS011;53689;56.878;60.672;2023-08-01T11:27:29;10.05;;;7.20;;
62523;SDS011;53689;56.878;60.672;2023-08-01T11:29:57;10.57;;;6.93;;
62523;SDS011;53689;56.878;60.672;2023-08-01T11:32:32;15.13;;;8.63;;
62523;SDS011;53689;56.878;60.672;2023-08-01T11:35:01;15.85;;;10.02;;
62523;SDS011;53689;56.878;60.672;2023-08-01T11:37:29;16.27;;;10.27;;
62523;SDS011;53689;56.878;60.672;2023-08-01T11:39:58;13.00;;;9.57;;
62523;SDS011;53689;56.878;60.672;2023-08-01T11:42:31;12.03;;;9.63;;
62523;SDS011;53689;56.878;60.672;2023-08-01T11:45:08;12.30;;;9.18;;
62523;SDS011;53689;56.878;60.672;2023-08-01T11:47:37;11.05;;;7.80;;
62523;SDS011;53689;56.878;60.672;2023-08-01T11:50:11;10.40;;;7.90;;
62523;SDS011;53689;56.878;60.672;2023-08-01T11:52:39;9.77;;;7.43;;
62523;SDS011;53689;56.878;60.672;2023-08-01T11:55:08;10.18;;;7.88;;
62523;SDS011;53689;56.878;60.672;2023-08-01T11:57:52;10.40;;;7.90;;
62523;SDS011;53689;56.878;60.672;2023-08-01T12:00:21;10.75;;;7.38;;
62523;SDS011;53689;56.878;60.672;2023-08-01T12:02:49;9.45;;;7.60;;
62523;SDS011;53689;56.878;60.672;2023-08-01T12:05:21;12.23;;;8.88;;
62523;SDS011;53689;56.878;60.672;2023-08-01T12:07:49;11.73;;;8.45;;
62523;SDS011;53689;56.878;60.672;2023-08-01T12:10:17;12.95;;;7.88;;
62523;SDS011;53689;56.878;60.672;2023-08-01T12:12:45;12.95;;;8.00;;
62523;SDS011;53689;56.878;60.672;2023-08-01T12:15:15;11.27;;;7.28;;
62523;SDS011;53689;56.878;60.672;2023-08-01T12:17:43;12.15;;;8.38;;
62523;SDS011;53689;56.878;60.672;2023-08-01T12:20:10;12.98;;;7.50;;
62523;SDS011;53689;56.878;60.672;2023-08-01T12:22:38;11.55;;;7.50;;
62523;SDS011;53689;56.878;60.672;2023-08-01T12:25:06;10.68;;;7.20;;
62523;SDS011;53689;56.878;60.672;2023-08-01T12:27:35;11.57;;;7.57;;
62523;SDS011;53689;56.878;60.672;2023-08-01T12:30:02;9.82;;;6.70;;
62523;SDS011;53689;56.878;60.672;2023-08-01T12:32:32;10.02;;;7.57;;
62523;SDS011;53689;56.878;60.672;2023-08-01T12:35:00;10.25;;;6.80;;
62523;SDS011;53689;56.878;60.672;2023-08-01T12:37:27;10.93;;;7.10;;
62523;SDS011;53689;56.878;60.672;2023-08-01T12:39:55;10.57;;;6.97;;
62523;SDS011;53689;56.878;60.672;2023-08-01T12:42:23;11.93;;;6.97;;
62523;SDS011;53689;56.878;60.672;2023-08-01T12:44:50;10.52;;;6.88;;
62523;SDS011;53689;56.878;60.672;2023-08-01T12:47:18;11.70;;;6.70;;
62523;SDS011;53689;56.878;60.672;2023-08-01T12:49:47;10.52;;;6.75;;
62523;SDS011;53689;56.878;60.672;2023-08-01T12:52:21;10.68;;;7.10;;
62523;SDS011;53689;56.878;60.672;2023-08-01T12:54:49;11.48;;;7.00;;
62523;SDS011;53689;56.878;60.672;2023-08-01T12:57:17;11.27;;;7.13;;
62523;SDS011;53689;56.878;60.672;2023-08-01T12:59:44;13.25;;;8.25;;
62523;SDS011;53689;56.878;60.672;2023-08-01T13:02:12;11.95;;;7.80;;
62523;SDS011;53689;56.878;60.672;2023-08-01T13:04:41;12.25;;;8.20;;
62523;SDS011;53689;56.878;60.672;2023-08-01T13:07:10;12.00;;;7.25;;
62523;SDS011;53689;56.878;60.672;2023-08-01T13:09:37;9.82;;;7.13;;
62523;SDS011;53689;56.878;60.672;2023-08-01T13:12:06;9.93;;;6.93;;
62523;SDS011;53689;56.878;60.672;2023-08-01T13:14:34;12.17;;;7.60;;
62523;SDS011;53689;56.878;60.672;2023-08-01T13:17:02;15.20;;;7.75;;
62523;SDS011;53689;56.878;60.672;2023-08-01T13:19:29;11.63;;;8.30;;
62523;SDS011;53689;56.878;60.672;2023-08-01T13:21:57;11.38;;;7.38;;
62523;SDS011;53689;56.878;60.672;2023-08-01T13:24:26;12.20;;;8.05;;
62523;SDS011;53689;56.878;60.672;2023-08-01T13:26:54;10.10;;;8.00;;
62523;SDS011;53689;56.878;60.672;2023-08-01T13:29:22;11.30;;;7.82;;
62523;SDS011;53689;56.878;60.672;2023-08-01T13:31:49;11.93;;;8.15;;
62523;SDS011;53689;56.878;60.672;2023-08-01T13:34:18;12.82;;;7.93;;
62523;SDS011;53689;56.878;60.672;2023-08-01T13:36:45;12.55;;;7.68;;
62523;SDS011;53689;56.878;60.672;2023-08-01T13:39:13;11.02;;;7.43;;
62523;SDS011;53689;56.878;60.672;2023-08-01T13:41:42;11.65;;;8.63;;
62523;SDS011;53689;56.878;60.672;2023-08-01T13:44:10;9.90;;;8.13;;
62523;SDS011;53689;56.878;60.672;2023-08-01T13:46:38;12.93;;;8.40;;
62523;SDS011;53689;56.878;60.672;2023-08-01T13:49:06;11.48;;;7.95;;
62523;SDS011;53689;56.878;60.672;2023-08-01T13:51:33;11.25;;;7.15;;
62523;SDS011;53689;56.878;60.672;2023-08-01T13:54:01;8.85;;;6.97;;
62523;SDS011;53689;56.878;60.672;2023-08-01T13:56:29;11.27;;;7.65;;
62523;SDS011;53689;56.878;60.672;2023-08-01T13:58:59;12.85;;;8.45;;
62523;SDS011;53689;56.878;60.672;2023-08-01T14:03:55;11.18;;;7.65;;
62523;SDS011;53689;56.878;60.672;2023-08-01T14:06:23;10.18;;;7.80;;
62523;SDS011;53689;56.878;60.672;2023-08-01T14:08:51;10.10;;;7.85;;
62523;SDS011;53689;56.878;60.672;2023-08-01T14:11:19;10.48;;;7.57;;
62523;SDS011;53689;56.878;60.672;2023-08-01T14:13:46;11.45;;;7.70;;
62523;SDS011;53689;56.878;60.672;2023-08-01T14:16:16;18.90;;;11.93;;
62523;SDS011;53689;56.878;60.672;2023-08-01T14:18:43;16.88;;;12.38;;
62523;SDS011;53689;56.878;60.672;2023-08-01T14:21:11;15.82;;;12.55;;
62523;SDS011;53689;56.878;60.672;2023-08-01T14:23:39;15.15;;;10.52;;
62523;SDS011;53689;56.878;60.672;2023-08-01T14:26:06;12.90;;;9.45;;
62523;SDS011;53689;56.878;60.672;2023-08-01T14:28:34;14.60;;;9.85;;
62523;SDS011;53689;56.878;60.672;2023-08-01T14:31:02;11.95;;;9.18;;
62523;SDS011;53689;56.878;60.672;2023-08-01T14:33:32;17.55;;;11.60;;
62523;SDS011;53689;56.878;60.672;2023-08-01T14:38:27;24.25;;;13.25;;
62523;SDS011;53689;56.878;60.672;2023-08-01T14:40:56;14.20;;;10.53;;
62523;SDS011;53689;56.878;60.672;2023-08-01T14:43:26;10.80;;;7.85;;
62523;SDS011;53689;56.878;60.672;2023-08-01T14:45:54;12.93;;;7.93;;